Terminal Aerodrome Forecast
Issued by NWS

Home | Current Version | Previous Version | Text Only | Print | Product List | Glossary On
Versions: 1 2 3 4 5 6 7 8 9 10 11 12 13
566
FTUS46 KLOX 241150
TAFWJF
TAF
KWJF 241150Z 2412/2512 27010KT P6SM SKC
     FM241900 24018G28KT P6SM SKC
     FM250200 26013KT P6SM SKC=

USA.gov is the U.S. government's official web portal to all federal, state and local government web resources and services.